createdAt,value
2022-11-22T00:00:32.770Z,9.75
2022-11-22T00:02:59.113Z,8.05
2022-11-22T00:05:25.438Z,5.57
2022-11-22T00:07:51.924Z,5.13
2022-11-22T00:10:18.448Z,7.15
2022-11-22T00:12:44.882Z,8.15
2022-11-22T00:15:11.895Z,4.93
2022-11-22T00:17:38.255Z,8.80
2022-11-22T00:20:05.561Z,4.80
2022-11-22T00:22:32.646Z,6.15
2022-11-22T00:24:59.050Z,4.47
2022-11-22T00:27:25.527Z,3.78
2022-11-22T00:29:51.884Z,4.70
2022-11-22T00:32:18.357Z,10.68
2022-11-22T00:34:44.664Z,5.20
2022-11-22T00:37:11.029Z,6.90
2022-11-22T00:39:37.394Z,5.95
2022-11-22T00:42:03.827Z,8.60
2022-11-22T00:44:30.178Z,6.97
2022-11-22T00:46:57.336Z,6.43
2022-11-22T00:49:23.709Z,7.83
2022-11-22T00:51:50.094Z,5.30
2022-11-22T00:54:16.454Z,4.68
2022-11-22T00:56:42.766Z,2.13
2022-11-22T00:59:09.118Z,5.63
2022-11-22T01:01:35.640Z,4.65
2022-11-22T01:04:02.027Z,7.43
2022-11-22T01:06:28.811Z,5.38
2022-11-22T01:08:55.156Z,6.22
2022-11-22T01:11:21.706Z,5.15
2022-11-22T01:13:48.143Z,5.60
2022-11-22T01:16:15.126Z,5.07
2022-11-22T01:18:41.503Z,2.95
2022-11-22T01:21:07.906Z,4.32
2022-11-22T01:23:34.537Z,7.00
2022-11-22T01:26:01.113Z,4.47
2022-11-22T01:28:27.513Z,5.95
2022-11-22T01:30:54.177Z,6.47
2022-11-22T01:33:20.860Z,4.15
2022-11-22T01:35:47.256Z,7.93
2022-11-22T01:38:13.777Z,7.57
2022-11-22T01:40:40.419Z,7.85
2022-11-22T01:43:14.149Z,4.93
2022-11-22T01:45:41.666Z,3.75
2022-11-22T01:48:23.471Z,3.35
2022-11-22T01:50:52.423Z,5.78
2022-11-22T01:53:21.040Z,7.25
2022-11-22T01:55:47.972Z,10.48
2022-11-22T01:58:15.277Z,11.18
2022-11-22T02:00:43.184Z,4.22
2022-11-22T02:05:36.203Z,4.70
2022-11-22T02:08:18.575Z,5.82
2022-11-22T02:10:47.184Z,5.00
2022-11-22T02:13:14.441Z,5.53
2022-11-22T02:15:41.646Z,3.40
2022-11-22T02:18:08.047Z,4.68
2022-11-22T02:20:34.442Z,4.43
2022-11-22T02:23:03.908Z,10.07
2022-11-22T02:25:43.933Z,7.43
2022-11-22T02:28:11.568Z,10.07
2022-11-22T02:30:38.157Z,13.60
2022-11-22T02:33:04.578Z,8.27
2022-11-22T02:35:31.445Z,13.93
2022-11-22T02:37:59.193Z,8.73
2022-11-22T02:40:26.561Z,3.20
2022-11-22T02:42:55.664Z,8.38
2022-11-22T02:45:22.070Z,3.05
2022-11-22T02:47:48.410Z,2.17
2022-11-22T02:50:14.758Z,2.00
2022-11-22T02:52:41.126Z,2.63
2022-11-22T02:55:07.677Z,3.20
2022-11-22T02:57:34.264Z,1.10
2022-11-22T03:00:00.662Z,2.45
2022-11-22T03:02:27.005Z,4.95
2022-11-22T03:04:53.351Z,2.85
2022-11-22T03:07:19.940Z,3.45
2022-11-22T03:09:46.601Z,2.90
2022-11-22T03:12:12.915Z,7.03
2022-11-22T03:14:39.260Z,2.90
2022-11-22T03:17:05.656Z,2.92
2022-11-22T03:19:32.296Z,4.22
2022-11-22T03:21:58.898Z,7.97
2022-11-22T03:24:25.241Z,4.50
2022-11-22T03:26:51.554Z,4.60
2022-11-22T03:29:18.274Z,3.72
2022-11-22T03:31:44.717Z,5.43
2022-11-22T03:34:12.167Z,4.13
2022-11-22T03:36:38.527Z,3.92
2022-11-22T03:39:04.860Z,3.67
2022-11-22T03:41:31.202Z,5.55
2022-11-22T03:43:57.557Z,4.28
2022-11-22T03:46:24.102Z,3.65
2022-11-22T03:48:50.439Z,4.95
2022-11-22T03:51:16.816Z,5.93
2022-11-22T03:53:43.372Z,4.60
2022-11-22T03:56:09.882Z,5.40
2022-11-22T03:58:36.295Z,7.13
2022-11-22T04:01:02.912Z,3.95
2022-11-22T04:03:29.319Z,5.28
2022-11-22T04:05:56.017Z,3.72
2022-11-22T04:08:22.701Z,5.10
2022-11-22T04:10:49.529Z,3.78
2022-11-22T04:13:16.300Z,4.95
2022-11-22T04:15:42.671Z,4.57
2022-11-22T04:18:09.621Z,3.95
2022-11-22T04:20:54.489Z,2.92
2022-11-22T04:23:21.846Z,4.15
2022-11-22T04:25:49.429Z,4.75
2022-11-22T04:28:16.882Z,4.47
2022-11-22T04:31:02.130Z,2.75
2022-11-22T04:33:28.801Z,5.25
2022-11-22T04:35:55.283Z,3.70
2022-11-22T04:38:22.074Z,3.67
2022-11-22T04:40:49.004Z,3.50
2022-11-22T04:43:45.281Z,3.20
2022-11-22T04:46:12.192Z,3.65
2022-11-22T04:48:38.569Z,1.95
2022-11-22T04:51:24.868Z,2.70
2022-11-22T04:53:51.637Z,4.03
2022-11-22T04:56:18.288Z,5.95
2022-11-22T04:58:44.629Z,4.03
2022-11-22T05:01:11.013Z,5.20
2022-11-22T05:03:37.423Z,1.50
2022-11-22T05:06:04.989Z,3.20
2022-11-22T05:08:31.486Z,2.38
2022-11-22T05:10:57.943Z,2.85
2022-11-22T05:13:26.155Z,2.22
2022-11-22T05:15:52.493Z,2.33
2022-11-22T05:18:19.487Z,2.60
2022-11-22T05:20:46.184Z,4.28
2022-11-22T05:23:30.987Z,5.20
2022-11-22T05:25:57.337Z,2.13
2022-11-22T05:28:23.703Z,4.28
2022-11-22T05:30:50.046Z,2.70
2022-11-22T05:33:16.395Z,5.43
2022-11-22T05:35:42.705Z,5.55
2022-11-22T05:38:09.051Z,5.95
2022-11-22T05:40:35.353Z,4.90
2022-11-22T05:43:01.723Z,5.57
2022-11-22T05:45:28.336Z,6.15
2022-11-22T05:47:55.610Z,5.28
2022-11-22T05:50:22.353Z,5.65
2022-11-22T05:52:48.728Z,5.13
2022-11-22T05:55:15.079Z,3.08
2022-11-22T05:57:41.464Z,4.55
2022-11-22T06:00:08.164Z,5.07
2022-11-22T06:02:34.557Z,5.22
2022-11-22T06:05:00.966Z,4.25
2022-11-22T06:07:27.476Z,5.28
2022-11-22T06:09:53.817Z,5.15
2022-11-22T06:12:20.199Z,4.07
2022-11-22T06:14:46.518Z,3.83
2022-11-22T06:17:12.917Z,3.05
2022-11-22T06:19:39.321Z,3.60
2022-11-22T06:22:06.411Z,2.78
2022-11-22T06:24:32.817Z,3.57
2022-11-22T06:26:59.143Z,5.43
2022-11-22T06:29:25.459Z,5.10
2022-11-22T06:31:53.071Z,3.88
2022-11-22T06:34:19.382Z,6.95
2022-11-22T06:36:46.497Z,4.45
2022-11-22T06:39:13.088Z,3.70
2022-11-22T06:41:39.492Z,2.90
2022-11-22T06:44:06.916Z,4.40
2022-11-22T06:46:33.778Z,5.15
2022-11-22T06:49:00.223Z,3.42
2022-11-22T06:51:28.469Z,5.72
2022-11-22T06:53:55.514Z,8.02
2022-11-22T06:56:21.827Z,9.05
2022-11-22T06:58:48.895Z,7.55
2022-11-22T07:01:17.178Z,8.13
2022-11-22T07:03:43.916Z,7.00
2022-11-22T07:06:11.690Z,8.48
2022-11-22T07:08:38.641Z,6.40
2022-11-22T07:11:06.025Z,8.25
2022-11-22T07:13:32.837Z,5.18
2022-11-22T07:16:00.264Z,5.85
2022-11-22T07:18:27.281Z,7.57
2022-11-22T07:20:54.075Z,5.40
2022-11-22T07:23:20.416Z,8.20
2022-11-22T07:25:47.808Z,5.88
2022-11-22T07:28:15.095Z,3.97
2022-11-22T07:30:44.225Z,4.45
2022-11-22T07:33:10.949Z,7.88
2022-11-22T07:35:37.334Z,7.32
2022-11-22T07:38:03.998Z,6.00
2022-11-22T07:40:30.442Z,3.40
2022-11-22T07:42:58.590Z,4.40
2022-11-22T07:45:25.300Z,2.03
2022-11-22T07:47:51.646Z,2.17
2022-11-22T07:50:18.087Z,2.22
2022-11-22T07:52:44.512Z,2.80
2022-11-22T07:55:14.177Z,2.38
2022-11-22T07:57:40.962Z,1.40
2022-11-22T08:00:07.692Z,2.35
2022-11-22T08:02:34.159Z,2.45
2022-11-22T08:05:00.586Z,1.83
2022-11-22T08:07:26.987Z,1.98
2022-11-22T08:09:53.313Z,2.92
2022-11-22T08:12:19.703Z,3.67
2022-11-22T08:14:46.105Z,2.35
2022-11-22T08:17:12.434Z,1.75
2022-11-22T08:19:39.666Z,8.57
2022-11-22T08:22:06.003Z,5.65
2022-11-22T08:24:33.794Z,1.80
2022-11-22T08:27:00.140Z,2.13
2022-11-22T08:29:29.300Z,3.15
2022-11-22T08:31:55.807Z,1.00
2022-11-22T08:34:22.260Z,5.03
2022-11-22T08:36:48.588Z,3.00
2022-11-22T08:39:14.918Z,3.85
2022-11-22T08:41:41.525Z,3.42
2022-11-22T08:44:08.096Z,1.73
2022-11-22T08:46:34.525Z,2.95
2022-11-22T08:49:03.810Z,4.80
2022-11-22T08:51:30.183Z,4.50
2022-11-22T08:53:56.566Z,1.75
2022-11-22T08:56:22.892Z,3.40
2022-11-22T08:58:49.331Z,4.97
2022-11-22T09:01:16.800Z,3.20
2022-11-22T09:03:43.726Z,5.20
2022-11-22T09:09:22.171Z,7.68
2022-11-22T09:11:44.610Z,5.63
2022-11-22T09:14:10.948Z,6.15
2022-11-22T09:16:38.148Z,6.00
2022-11-22T09:19:04.537Z,9.52
2022-11-22T09:21:31.076Z,9.13
2022-11-22T09:23:57.631Z,4.57
2022-11-22T09:26:25.178Z,4.63
2022-11-22T09:28:53.086Z,4.88
2022-11-22T09:33:46.977Z,6.72
2022-11-22T09:36:20.876Z,4.70
2022-11-22T09:38:47.936Z,6.63
2022-11-22T09:41:17.106Z,4.20
2022-11-22T09:43:43.458Z,5.53
2022-11-22T09:46:28.699Z,4.10
2022-11-22T09:48:55.042Z,5.90
2022-11-22T09:51:24.148Z,7.18
2022-11-22T09:53:54.307Z,6.25
2022-11-22T09:56:23.504Z,4.72
2022-11-22T09:58:54.925Z,9.38
2022-11-22T10:01:27.723Z,4.60
2022-11-22T10:04:14.630Z,5.85
2022-11-22T10:06:42.893Z,4.60
2022-11-22T10:09:28.688Z,5.88
2022-11-22T10:12:00.508Z,6.13
2022-11-22T10:14:42.339Z,4.68
2022-11-22T10:17:08.664Z,9.10
2022-11-22T10:19:37.727Z,8.85
2022-11-22T10:22:10.448Z,10.25
2022-11-22T10:24:36.762Z,10.38
2022-11-22T10:27:03.735Z,13.73
2022-11-22T10:29:44.301Z,5.60
2022-11-22T10:32:24.029Z,7.70
2022-11-22T10:34:56.650Z,8.50
2022-11-22T10:37:27.867Z,10.68
2022-11-22T10:39:54.274Z,11.25
2022-11-22T10:42:39.580Z,8.03
2022-11-22T10:45:35.225Z,5.97
2022-11-22T10:48:09.913Z,8.20
2022-11-22T10:50:50.035Z,9.48
2022-11-22T10:53:23.164Z,8.25
2022-11-22T10:56:02.023Z,5.25
2022-11-22T10:58:31.172Z,9.38
2022-11-22T11:01:07.080Z,13.65
2022-11-22T11:03:35.279Z,21.67
2022-11-22T11:06:22.653Z,16.00
2022-11-22T11:11:47.458Z,15.35
2022-11-22T11:14:29.884Z,7.65
2022-11-22T11:16:56.828Z,8.70
2022-11-22T11:19:29.471Z,9.73
2022-11-22T11:22:01.678Z,9.15
2022-11-22T11:24:29.783Z,17.00
2022-11-22T11:26:57.883Z,17.98
2022-11-22T11:29:24.213Z,10.75
2022-11-22T11:31:51.973Z,10.75
2022-11-22T11:34:26.466Z,13.90
2022-11-22T11:36:54.287Z,22.42
2022-11-22T11:39:21.794Z,17.40
2022-11-22T11:44:40.828Z,23.85
2022-11-22T11:47:17.546Z,29.70
2022-11-22T11:49:50.154Z,18.20
2022-11-22T11:52:21.931Z,9.90
2022-11-22T11:54:49.596Z,10.65
2022-11-22T11:59:47.053Z,10.82
2022-11-22T12:02:15.114Z,5.82
2022-11-22T12:04:56.691Z,5.80
2022-11-22T12:07:24.632Z,8.57
2022-11-22T12:09:51.727Z,7.25
2022-11-22T12:12:26.902Z,7.70
2022-11-22T12:15:19.845Z,7.90
2022-11-22T12:17:59.096Z,5.30
2022-11-22T12:20:29.393Z,7.63
2022-11-22T12:23:01.288Z,5.88
2022-11-22T12:25:35.369Z,8.30
2022-11-22T12:28:23.128Z,7.78
2022-11-22T12:33:19.028Z,6.90
2022-11-22T12:35:45.890Z,9.38
2022-11-22T12:38:16.137Z,5.70
2022-11-22T12:40:43.961Z,4.93
2022-11-22T12:45:40.489Z,3.92
2022-11-22T12:48:09.384Z,4.85
2022-11-22T12:50:44.363Z,5.28
2022-11-22T12:53:34.082Z,6.15
2022-11-22T12:56:04.748Z,4.82
2022-11-22T12:58:39.352Z,5.20
2022-11-22T13:01:10.522Z,3.50
2022-11-22T13:03:49.896Z,6.00
2022-11-22T13:06:17.495Z,5.28
2022-11-22T13:08:53.861Z,6.25
2022-11-22T13:11:25.438Z,6.93
2022-11-22T13:13:54.273Z,7.95
2022-11-22T13:16:20.732Z,7.97
2022-11-22T13:18:52.563Z,5.80
2022-11-22T13:21:22.211Z,7.63
2022-11-22T13:24:07.315Z,8.77
2022-11-22T13:26:52.021Z,7.70
2022-11-22T13:29:22.078Z,8.38
2022-11-22T13:32:06.190Z,6.10
2022-11-22T13:34:34.140Z,9.15
2022-11-22T13:37:09.611Z,9.50
2022-11-22T13:39:38.955Z,7.70
2022-11-22T13:42:06.209Z,6.43
2022-11-22T13:44:33.004Z,7.88
2022-11-22T13:47:01.611Z,7.75
2022-11-22T13:49:43.534Z,7.32
2022-11-22T13:52:13.059Z,6.50
2022-11-22T13:54:41.499Z,4.82
2022-11-22T13:57:27.208Z,9.65
2022-11-22T14:00:15.026Z,8.55
2022-11-22T14:02:48.975Z,12.30
2022-11-22T14:05:21.756Z,9.00
2022-11-22T14:07:52.626Z,6.70
2022-11-22T14:10:42.105Z,6.43
2022-11-22T14:13:11.882Z,5.15
2022-11-22T14:15:38.583Z,4.72
2022-11-22T14:18:14.618Z,5.22
2022-11-22T14:21:01.468Z,5.57
2022-11-22T14:23:43.113Z,2.63
2022-11-22T14:26:21.752Z,4.75
2022-11-22T14:28:48.095Z,5.05
2022-11-22T14:31:20.936Z,5.13
2022-11-22T14:34:06.136Z,3.92
2022-11-22T14:36:32.473Z,3.58
2022-11-22T14:38:58.830Z,3.28
2022-11-22T14:41:28.393Z,4.20
2022-11-22T14:44:03.273Z,2.47
2022-11-22T14:46:53.675Z,4.70
2022-11-22T14:49:42.548Z,4.93
2022-11-22T14:52:41.329Z,5.45
2022-11-22T14:55:13.015Z,3.83
2022-11-22T14:57:39.461Z,4.05
2022-11-22T15:00:12.212Z,4.57
2022-11-22T15:02:53.644Z,6.40
2022-11-22T15:09:10.444Z,4.32
2022-11-22T15:09:17.865Z,3.45
2022-11-22T15:11:41.052Z,4.25
2022-11-22T15:14:13.402Z,3.30
2022-11-22T15:59:41.207Z,9.50
2022-11-22T16:02:21.385Z,7.72
2022-11-22T16:06:06.580Z,12.35
2022-11-22T16:07:55.407Z,10.20
2022-11-22T16:10:22.857Z,24.52
2022-11-22T16:12:50.220Z,44.95
2022-11-22T16:15:25.667Z,53.33
2022-11-22T16:17:59.150Z,59.80
2022-11-22T16:20:31.371Z,55.20
2022-11-22T16:23:03.706Z,61.70
2022-11-22T16:25:34.671Z,25.42
2022-11-22T16:28:03.299Z,26.17
2022-11-22T16:30:29.702Z,30.15
2022-11-22T16:32:58.501Z,24.25
2022-11-22T16:35:31.963Z,20.23
2022-11-22T16:37:58.317Z,11.88
2022-11-22T16:40:26.107Z,11.73
2022-11-22T16:42:52.563Z,9.82
2022-11-22T16:45:20.046Z,9.13
2022-11-22T16:47:54.606Z,8.15
2022-11-22T16:50:33.995Z,8.20
2022-11-22T16:53:02.934Z,8.77
2022-11-22T16:55:29.459Z,6.45
2022-11-22T16:57:56.131Z,10.07
2022-11-22T17:00:22.617Z,7.97
2022-11-22T17:02:49.424Z,7.57
2022-11-22T17:05:17.276Z,11.05
2022-11-22T17:07:43.904Z,8.30
2022-11-22T17:10:10.650Z,7.18
2022-11-22T17:12:37.038Z,6.25
2022-11-22T17:15:03.792Z,23.58
2022-11-22T17:17:30.139Z,34.00
2022-11-22T17:19:56.633Z,36.10
2022-11-22T17:22:23.162Z,33.70
2022-11-22T17:24:49.532Z,26.02
2022-11-22T17:27:16.357Z,42.42
2022-11-22T17:29:50.391Z,44.83
2022-11-22T17:32:17.481Z,17.88
2022-11-22T17:34:43.918Z,14.13
2022-11-22T17:37:13.559Z,13.30
2022-11-22T17:39:40.144Z,9.63
2022-11-22T17:42:06.880Z,9.48
2022-11-22T17:44:34.139Z,48.95
2022-11-22T17:47:00.525Z,44.10
2022-11-22T17:49:27.415Z,16.95
2022-11-22T17:51:55.446Z,18.42
2022-11-22T17:56:48.928Z,20.77
2022-11-22T17:59:15.321Z,22.23
2022-11-22T18:01:43.148Z,18.77
2022-11-22T18:04:09.469Z,25.23
2022-11-22T18:06:36.120Z,31.45
2022-11-22T18:09:02.550Z,17.55
2022-11-22T18:11:28.993Z,19.65
2022-11-22T18:13:55.412Z,18.17
2022-11-22T18:16:28.121Z,14.20
2022-11-22T18:18:57.442Z,11.80
2022-11-22T18:21:24.634Z,15.00
2022-11-22T18:23:51.031Z,14.65
2022-11-22T18:26:38.336Z,18.40
2022-11-22T18:31:52.960Z,17.25
2022-11-22T18:34:20.277Z,18.00
2022-11-22T18:39:35.279Z,27.38
2022-11-22T18:42:02.711Z,44.33
2022-11-22T18:44:29.098Z,24.92
2022-11-22T18:46:55.687Z,33.20
2022-11-22T18:49:22.047Z,67.82
2022-11-22T18:51:48.415Z,63.53
2022-11-22T18:54:15.040Z,37.58
2022-11-22T18:56:41.450Z,29.92
2022-11-22T18:59:10.630Z,18.25
2022-11-22T19:01:37.181Z,10.77
2022-11-22T19:04:03.999Z,14.88
2022-11-22T19:06:30.834Z,15.13
2022-11-22T19:08:57.518Z,13.88
2022-11-22T19:11:23.964Z,14.35
2022-11-22T19:13:51.131Z,18.02
2022-11-22T19:16:19.067Z,18.67
2022-11-22T19:18:45.416Z,10.75
2022-11-22T19:21:16.347Z,11.63
2022-11-22T19:23:42.902Z,11.50
2022-11-22T19:26:12.295Z,9.30
2022-11-22T19:28:38.663Z,9.32
2022-11-22T19:31:08.747Z,8.07
2022-11-22T19:33:35.519Z,8.68
2022-11-22T19:36:03.521Z,9.98
2022-11-22T19:40:56.324Z,8.02
2022-11-22T19:43:23.004Z,8.05
2022-11-22T19:45:49.356Z,5.78
2022-11-22T19:48:16.686Z,6.30
2022-11-22T19:50:43.229Z,7.63
2022-11-22T19:53:09.915Z,11.45
2022-11-22T19:55:39.897Z,8.35
2022-11-22T19:58:08.632Z,6.63
2022-11-22T20:00:35.009Z,7.10
2022-11-22T20:03:01.582Z,8.70
2022-11-22T20:05:29.860Z,7.07
2022-11-22T20:07:56.186Z,8.45
2022-11-22T20:10:22.628Z,7.28
2022-11-22T20:12:49.623Z,8.55
2022-11-22T20:15:16.215Z,9.32
2022-11-22T20:17:42.572Z,9.73
2022-11-22T20:20:10.291Z,8.73
2022-11-22T20:22:37.126Z,7.07
2022-11-22T20:25:05.942Z,8.65
2022-11-22T20:27:32.380Z,8.38
2022-11-22T20:30:01.219Z,6.72
2022-11-22T20:32:28.574Z,5.80
2022-11-22T20:34:54.940Z,6.90
2022-11-22T20:37:21.714Z,7.60
2022-11-22T20:39:48.114Z,8.48
2022-11-22T20:45:00.886Z,8.02
2022-11-22T20:47:27.248Z,10.60
2022-11-22T20:49:53.609Z,9.68
2022-11-22T20:52:20.171Z,8.40
2022-11-22T20:54:46.786Z,7.35
2022-11-22T20:57:13.317Z,9.90
2022-11-22T20:59:39.895Z,11.98
2022-11-22T21:02:09.280Z,10.32
2022-11-22T21:04:35.949Z,9.43
2022-11-22T21:07:02.336Z,11.38
2022-11-22T21:09:28.791Z,13.73
2022-11-22T21:11:55.190Z,8.68
2022-11-22T21:14:21.516Z,9.77
2022-11-22T21:16:49.194Z,8.38
2022-11-22T21:19:15.667Z,7.32
2022-11-22T21:21:42.258Z,6.90
2022-11-22T21:24:10.779Z,8.23
2022-11-22T21:26:37.950Z,8.02
2022-11-22T21:29:11.536Z,7.68
2022-11-22T21:34:08.726Z,7.13
2022-11-22T21:36:35.144Z,10.52
2022-11-22T21:39:01.593Z,7.57
2022-11-22T21:41:43.300Z,7.25
2022-11-22T21:44:10.819Z,6.55
2022-11-22T21:46:37.523Z,6.85
2022-11-22T21:49:03.877Z,8.32
2022-11-22T21:51:30.287Z,7.28
2022-11-22T21:53:58.106Z,9.73
2022-11-22T21:56:24.888Z,8.30
2022-11-22T21:58:51.268Z,12.68
2022-11-22T22:01:17.627Z,11.05
2022-11-22T22:03:43.991Z,9.07
2022-11-22T22:06:10.388Z,5.85
2022-11-22T22:08:37.306Z,10.02
2022-11-22T22:11:05.357Z,8.43
2022-11-22T22:13:32.335Z,9.25
2022-11-22T22:15:59.961Z,6.25
2022-11-22T22:18:33.635Z,7.63
2022-11-22T22:21:03.831Z,10.35
2022-11-22T22:23:30.298Z,9.05
2022-11-22T22:25:57.279Z,9.57
2022-11-22T22:28:24.252Z,6.85
2022-11-22T22:30:50.830Z,10.37
2022-11-22T22:33:17.192Z,5.38
2022-11-22T22:35:43.550Z,7.55
2022-11-22T22:38:10.687Z,5.53
2022-11-22T22:40:36.997Z,6.90
2022-11-22T22:43:03.362Z,7.68
2022-11-22T22:45:29.717Z,5.18
2022-11-22T22:47:56.382Z,6.97
2022-11-22T22:50:22.702Z,4.57
2022-11-22T22:52:49.708Z,5.43
2022-11-22T22:55:16.351Z,5.40
2022-11-22T22:57:42.988Z,4.35
2022-11-22T23:00:12.908Z,4.70
2022-11-22T23:02:40.686Z,7.93
2022-11-22T23:05:07.186Z,4.85
2022-11-22T23:07:33.593Z,5.30
2022-11-22T23:09:59.958Z,8.35
2022-11-22T23:12:27.384Z,6.95
2022-11-22T23:14:53.813Z,7.32
2022-11-22T23:17:20.177Z,6.45
2022-11-22T23:19:46.708Z,9.35
2022-11-22T23:22:13.384Z,8.05
2022-11-22T23:24:40.135Z,7.65
2022-11-22T23:27:06.454Z,6.78
2022-11-22T23:29:33.660Z,7.22
2022-11-22T23:32:00.309Z,5.55
2022-11-22T23:34:27.868Z,6.05
2022-11-22T23:36:54.212Z,6.55
2022-11-22T23:39:20.571Z,7.10
2022-11-22T23:41:46.979Z,8.95
2022-11-22T23:44:13.353Z,7.50
2022-11-22T23:46:39.703Z,9.43
2022-11-22T23:49:06.343Z,6.70
2022-11-22T23:51:33.214Z,5.03
2022-11-22T23:54:00.854Z,7.95
2022-11-22T23:56:28.149Z,10.40
2022-11-22T23:58:54.741Z,11.25
